Time;durP1;ratioP1;P1;durP2;ratioP2;P2;SDS_P1;SDS_P2;PMS_P1;PMS_P2;Temp;Humidity;BMP_temperature;BMP_pressure;BME280_temperature;BME280_humidity;BME280_pressure;Samples;Min_cycle;Max_cycle;Signal;HPM_P1;HPM_P2
2023/05/14 00:02:08;;;;;;;16.35;10.75;;;;;;;;;;4982689;28;20029;-65
2023/05/14 00:04:34;;;;;;;19.70;11.10;;;;;;;;;;4983080;28;20042;-63
2023/05/14 00:06:59;;;;;;;18.73;10.65;;;;;;;;;;4981394;28;20443;-64
2023/05/14 00:09:25;;;;;;;19.35;9.70;;;;;;;;;;4983322;28;20532;-64
2023/05/14 00:11:51;;;;;;;19.73;9.75;;;;;;;;;;4982486;28;20031;-64
2023/05/14 00:14:16;;;;;;;20.80;10.00;;;;;;;;;;4981663;28;20022;-63
2023/05/14 00:16:42;;;;;;;17.50;10.02;;;;;;;;;;4983065;28;20029;-63
2023/05/14 00:19:07;;;;;;;16.17;10.55;;;;;;;;;;4981719;28;20018;-64
2023/05/14 00:21:33;;;;;;;22.73;9.80;;;;;;;;;;4983539;28;20031;-64
2023/05/14 00:23:58;;;;;;;18.65;10.25;;;;;;;;;;4981101;28;20023;-63
2023/05/14 00:26:24;;;;;;;22.23;10.48;;;;;;;;;;4983114;28;20030;-64
2023/05/14 00:28:49;;;;;;;16.08;10.00;;;;;;;;;;4982131;28;20023;-64
2023/05/14 00:31:15;;;;;;;14.15;9.85;;;;;;;;;;4980801;28;20030;-63
2023/05/14 00:33:40;;;;;;;17.75;9.90;;;;;;;;;;4983221;28;20026;-63
2023/05/14 00:36:43;;;;;;;15.88;9.38;;;;;;;;;;4983403;28;20057;-63
2023/05/14 00:39:08;;;;;;;16.05;9.98;;;;;;;;;;4986977;28;20129;-65
2023/05/14 00:41:34;;;;;;;14.73;9.48;;;;;;;;;;4984794;28;20479;-63
2023/05/14 00:44:00;;;;;;;15.55;9.52;;;;;;;;;;4987022;28;20026;-63
2023/05/14 00:46:26;;;;;;;17.55;9.05;;;;;;;;;;4992809;28;20026;-67
2023/05/14 00:48:52;;;;;;;12.93;8.63;;;;;;;;;;4993082;28;20030;-64
2023/05/14 00:51:18;;;;;;;15.50;8.90;;;;;;;;;;4992930;28;20030;-64
2023/05/14 00:53:45;;;;;;;20.30;9.52;;;;;;;;;;4993121;28;20034;-64
2023/05/14 00:56:10;;;;;;;19.13;9.30;;;;;;;;;;4993043;28;20490;-65
2023/05/14 00:58:36;;;;;;;16.02;8.27;;;;;;;;;;4993303;28;20027;-63
2023/05/14 01:01:02;;;;;;;14.45;7.65;;;;;;;;;;4992767;28;20033;-63
2023/05/14 01:03:29;;;;;;;17.40;7.72;;;;;;;;;;4991762;28;20045;-65
2023/05/14 01:06:19;;;;;;;12.73;8.60;;;;;;;;;;4992991;28;20034;-63
2023/05/14 01:09:25;;;;;;;16.05;7.95;;;;;;;;;;4993199;28;20365;-65
2023/05/14 01:12:15;;;;;;;14.68;8.15;;;;;;;;;;4993008;28;20034;-64
2023/05/14 01:15:04;;;;;;;12.77;8.45;;;;;;;;;;4992773;28;20033;-65
2023/05/14 01:17:32;;;;;;;18.10;9.50;;;;;;;;;;4992426;28;20043;-66
2023/05/14 01:19:59;;;;;;;14.80;8.63;;;;;;;;;;4992489;28;20108;-67
2023/05/14 01:22:24;;;;;;;16.38;9.40;;;;;;;;;;4992716;28;20030;-65
2023/05/14 01:24:50;;;;;;;14.18;9.32;;;;;;;;;;4992824;28;20032;-64
2023/05/14 01:27:28;;;;;;;15.65;9.23;;;;;;;;;;4992822;28;20022;-68
2023/05/14 01:30:06;;;;;;;15.63;9.95;;;;;;;;;;4992571;28;20110;-64
2023/05/14 01:32:32;;;;;;;19.10;10.85;;;;;;;;;;4991712;28;20029;-64
2023/05/14 01:35:00;;;;;;;19.42;11.27;;;;;;;;;;4992623;28;20027;-66
2023/05/14 01:37:27;;;;;;;17.17;10.90;;;;;;;;;;4992628;28;20022;-65
2023/05/14 01:39:54;;;;;;;15.80;10.70;;;;;;;;;;4991259;28;20076;-64
2023/05/14 01:42:20;;;;;;;16.98;11.18;;;;;;;;;;5000516;28;20029;-66
2023/05/14 01:44:46;;;;;;;17.85;10.90;;;;;;;;;;5015592;28;20391;-64
2023/05/14 01:47:11;;;;;;;16.65;11.30;;;;;;;;;;5015704;28;20029;-65
2023/05/14 01:49:37;;;;;;;13.70;10.00;;;;;;;;;;5015836;28;20034;-66
2023/05/14 01:52:02;;;;;;;16.83;10.35;;;;;;;;;;5015936;28;20030;-68
2023/05/14 01:54:28;;;;;;;19.23;10.48;;;;;;;;;;5015610;28;20136;-65
2023/05/14 01:56:53;;;;;;;15.90;10.73;;;;;;;;;;5015657;28;20483;-67
2023/05/14 01:59:19;;;;;;;18.98;9.77;;;;;;;;;;5015274;28;20085;-67
2023/05/14 02:01:44;;;;;;;13.90;9.68;;;;;;;;;;4997485;28;20365;-63
2023/05/14 02:04:10;;;;;;;15.40;9.85;;;;;;;;;;4995922;28;20030;-64
2023/05/14 02:06:35;;;;;;;17.20;10.35;;;;;;;;;;4995717;28;20030;-64
2023/05/14 02:09:01;;;;;;;15.43;10.10;;;;;;;;;;4995704;28;20077;-63
2023/05/14 02:11:26;;;;;;;13.25;8.40;;;;;;;;;;4995924;28;20018;-66
2023/05/14 02:13:52;;;;;;;14.98;9.05;;;;;;;;;;4995430;28;20105;-65
2023/05/14 02:16:18;;;;;;;15.10;9.60;;;;;;;;;;4995483;28;20113;-68
2023/05/14 02:18:43;;;;;;;21.67;10.50;;;;;;;;;;4995541;28;20033;-63
2023/05/14 02:21:09;;;;;;;13.43;9.18;;;;;;;;;;4995380;28;20038;-66
2023/05/14 02:23:34;;;;;;;15.18;8.45;;;;;;;;;;4995634;28;20105;-65
2023/05/14 02:25:59;;;;;;;14.77;8.80;;;;;;;;;;4995433;28;20026;-67
2023/05/14 02:28:25;;;;;;;17.95;9.35;;;;;;;;;;4995194;28;20472;-66
2023/05/14 02:30:50;;;;;;;12.45;8.98;;;;;;;;;;4995559;28;20030;-66
2023/05/14 02:33:16;;;;;;;13.93;8.75;;;;;;;;;;4995466;28;20023;-64
2023/05/14 02:35:41;;;;;;;11.57;7.88;;;;;;;;;;4995159;28;20026;-65
2023/05/14 02:38:06;;;;;;;15.98;8.75;;;;;;;;;;4995107;28;20031;-64
2023/05/14 02:40:32;;;;;;;14.68;8.40;;;;;;;;;;4995193;28;20032;-66
2023/05/14 02:42:57;;;;;;;12.73;8.20;;;;;;;;;;4999410;28;20065;-63
2023/05/14 02:45:23;;;;;;;20.75;8.60;;;;;;;;;;5014659;28;20038;-63
2023/05/14 02:47:48;;;;;;;18.88;8.85;;;;;;;;;;5014709;28;20022;-64
2023/05/14 02:50:14;;;;;;;13.55;8.52;;;;;;;;;;5014565;28;20026;-66
2023/05/14 02:52:39;;;;;;;14.57;8.27;;;;;;;;;;5014272;28;20033;-67
2023/05/14 02:55:05;;;;;;;13.63;8.13;;;;;;;;;;5014103;28;20494;-69
2023/05/14 02:57:31;;;;;;;13.40;8.20;;;;;;;;;;5014365;28;20022;-70
2023/05/14 02:59:56;;;;;;;13.68;7.55;;;;;;;;;;5014275;28;20372;-67
2023/05/14 03:02:21;;;;;;;13.18;7.57;;;;;;;;;;5014359;28;20030;-67
2023/05/14 03:04:47;;;;;;;14.90;7.80;;;;;;;;;;5014403;28;20108;-67
2023/05/14 03:07:12;;;;;;;14.30;7.97;;;;;;;;;;5014234;28;20029;-66
2023/05/14 03:09:38;;;;;;;15.77;8.23;;;;;;;;;;5014189;28;20104;-67
2023/05/14 03:12:03;;;;;;;15.35;8.55;;;;;;;;;;5013987;28;20076;-67
2023/05/14 03:14:29;;;;;;;11.95;7.95;;;;;;;;;;5014007;28;20057;-68
2023/05/14 03:16:54;;;;;;;16.35;8.38;;;;;;;;;;5013987;28;20049;-69
2023/05/14 03:19:19;;;;;;;13.93;8.50;;;;;;;;;;4994997;28;20054;-66
2023/05/14 03:21:45;;;;;;;11.32;8.07;;;;;;;;;;4994391;28;20480;-68
2023/05/14 03:24:10;;;;;;;13.00;8.48;;;;;;;;;;4994219;28;20026;-64
2023/05/14 03:26:36;;;;;;;15.90;8.68;;;;;;;;;;4994001;28;20018;-67
2023/05/14 03:29:02;;;;;;;13.00;8.65;;;;;;;;;;4994216;28;20102;-67
2023/05/14 03:31:28;;;;;;;10.80;7.40;;;;;;;;;;4994241;28;20445;-65
2023/05/14 03:33:54;;;;;;;13.07;8.50;;;;;;;;;;4994179;28;20050;-68
2023/05/14 03:36:19;;;;;;;16.02;8.55;;;;;;;;;;4993856;28;20037;-68
2023/05/14 03:38:45;;;;;;;12.55;8.48;;;;;;;;;;4993925;28;20113;-66
2023/05/14 03:41:10;;;;;;;15.63;8.70;;;;;;;;;;4993883;28;20427;-67
2023/05/14 03:43:35;;;;;;;12.43;7.78;;;;;;;;;;5002667;28;20037;-68
2023/05/14 03:46:01;;;;;;;13.65;7.90;;;;;;;;;;5013439;28;20030;-65
2023/05/14 03:48:26;;;;;;;11.50;6.90;;;;;;;;;;5013535;28;20057;-68
2023/05/14 03:50:52;;;;;;;12.90;6.25;;;;;;;;;;5013443;28;20353;-67
2023/05/14 03:53:17;;;;;;;9.52;7.10;;;;;;;;;;5013157;28;20041;-65
2023/05/14 03:55:42;;;;;;;10.88;6.80;;;;;;;;;;5013337;28;20058;-64
2023/05/14 03:58:12;;;;;;;16.48;5.70;;;;;;;;;;5013436;28;20471;-66
2023/05/14 04:00:40;;;;;;;8.40;5.35;;;;;;;;;;5013279;28;20034;-65
2023/05/14 04:03:06;;;;;;;10.93;6.13;;;;;;;;;;5013266;28;20084;-65
2023/05/14 04:05:31;;;;;;;8.00;5.40;;;;;;;;;;5012155;28;20034;-68
2023/05/14 04:07:57;;;;;;;13.00;5.82;;;;;;;;;;5013021;28;20022;-64
2023/05/14 04:10:22;;;;;;;8.57;5.47;;;;;;;;;;5013117;28;20057;-67
2023/05/14 04:12:48;;;;;;;8.05;5.13;;;;;;;;;;5013225;28;20053;-67
2023/05/14 04:15:13;;;;;;;8.73;5.60;;;;;;;;;;5013012;28;20048;-67
2023/05/14 04:17:38;;;;;;;8.68;4.75;;;;;;;;;;5012303;28;20022;-68
2023/05/14 04:20:05;;;;;;;9.30;5.05;;;;;;;;;;4993072;28;20403;-67
2023/05/14 04:22:31;;;;;;;10.85;5.68;;;;;;;;;;4991980;28;20080;-68
2023/05/14 04:24:56;;;;;;;10.65;5.40;;;;;;;;;;4993147;28;20034;-66
2023/05/14 04:27:22;;;;;;;11.10;5.55;;;;;;;;;;4993337;28;20037;-69
2023/05/14 04:29:48;;;;;;;7.05;5.18;;;;;;;;;;4993313;28;20029;-67
2023/05/14 04:32:13;;;;;;;6.28;4.70;;;;;;;;;;4993407;28;20116;-65
2023/05/14 04:34:40;;;;;;;10.20;5.28;;;;;;;;;;4993321;28;20053;-69
2023/05/14 04:37:05;;;;;;;8.80;5.43;;;;;;;;;;4992904;28;20058;-68
2023/05/14 04:39:31;;;;;;;9.85;5.63;;;;;;;;;;4993296;28;20159;-65
2023/05/14 04:41:56;;;;;;;10.43;5.10;;;;;;;;;;4993335;28;20042;-65
2023/05/14 04:44:21;;;;;;;8.20;4.93;;;;;;;;;;5005497;28;20030;-69
2023/05/14 04:46:47;;;;;;;9.63;5.20;;;;;;;;;;5012766;28;20030;-66
2023/05/14 04:49:12;;;;;;;12.60;5.32;;;;;;;;;;5012710;28;20116;-65
2023/05/14 04:51:38;;;;;;;7.63;5.40;;;;;;;;;;5011169;28;20032;-64
2023/05/14 04:54:03;;;;;;;7.45;5.15;;;;;;;;;;5012702;28;20022;-68
2023/05/14 04:56:29;;;;;;;6.88;5.00;;;;;;;;;;5012661;28;20038;-64
2023/05/14 04:58:54;;;;;;;6.78;5.00;;;;;;;;;;5012571;28;20044;-65
2023/05/14 05:01:21;;;;;;;7.55;5.10;;;;;;;;;;5012453;28;20022;-66
2023/05/14 05:03:46;;;;;;;7.72;5.28;;;;;;;;;;5012615;28;20450;-69
2023/05/14 05:06:11;;;;;;;9.55;5.50;;;;;;;;;;5012488;28;20022;-67
2023/05/14 05:08:37;;;;;;;6.78;5.55;;;;;;;;;;5012360;28;20030;-69
2023/05/14 05:11:03;;;;;;;7.10;5.10;;;;;;;;;;5012574;28;20121;-65
2023/05/14 05:13:28;;;;;;;9.48;5.00;;;;;;;;;;5012617;28;20499;-69
2023/05/14 05:15:54;;;;;;;8.15;5.55;;;;;;;;;;5012398;28;20026;-68
2023/05/14 05:18:19;;;;;;;10.07;5.50;;;;;;;;;;5013317;28;20490;-67
2023/05/14 05:20:45;;;;;;;6.85;5.53;;;;;;;;;;4995837;28;20053;-64
2023/05/14 05:23:10;;;;;;;7.93;5.60;;;;;;;;;;4996636;28;20034;-67
2023/05/14 05:25:35;;;;;;;7.72;5.38;;;;;;;;;;4996576;28;20081;-64
2023/05/14 05:28:01;;;;;;;7.72;5.22;;;;;;;;;;4996523;28;20026;-65
2023/05/14 05:30:26;;;;;;;11.13;5.65;;;;;;;;;;4996475;28;20587;-70
2023/05/14 05:32:52;;;;;;;9.10;5.78;;;;;;;;;;4996549;28;20468;-66
2023/05/14 05:35:17;;;;;;;9.13;6.00;;;;;;;;;;4996105;28;20022;-66
2023/05/14 05:37:44;;;;;;;7.35;5.35;;;;;;;;;;4995917;28;20030;-67
2023/05/14 05:40:09;;;;;;;9.68;5.60;;;;;;;;;;4996326;28;20026;-68
2023/05/14 05:42:35;;;;;;;10.25;5.00;;;;;;;;;;4995052;28;20439;-65
2023/05/14 05:45:00;;;;;;;10.05;5.35;;;;;;;;;;5003552;28;20432;-69
2023/05/14 05:47:26;;;;;;;7.05;4.97;;;;;;;;;;5015829;28;20033;-67
2023/05/14 05:49:52;;;;;;;8.85;5.43;;;;;;;;;;5015479;28;20057;-67
2023/05/14 05:52:18;;;;;;;9.20;5.22;;;;;;;;;;5015808;28;20149;-65
2023/05/14 05:54:43;;;;;;;8.23;5.32;;;;;;;;;;5015677;28;20030;-66
2023/05/14 05:57:09;;;;;;;8.70;5.03;;;;;;;;;;5015518;28;20033;-68
2023/05/14 05:59:35;;;;;;;13.35;5.40;;;;;;;;;;5015431;28;20026;-67
2023/05/14 06:02:00;;;;;;;8.27;6.00;;;;;;;;;;5015339;28;20033;-67
2023/05/14 06:04:26;;;;;;;9.13;5.38;;;;;;;;;;5013953;28;20117;-68
2023/05/14 06:06:51;;;;;;;8.07;5.10;;;;;;;;;;5015394;28;20034;-68
2023/05/14 06:09:16;;;;;;;10.50;5.47;;;;;;;;;;5015363;28;20030;-65
2023/05/14 06:11:42;;;;;;;8.55;5.70;;;;;;;;;;5015473;28;20302;-63
2023/05/14 06:14:07;;;;;;;9.32;5.72;;;;;;;;;;5013878;28;20033;-66
2023/05/14 06:16:33;;;;;;;11.57;5.50;;;;;;;;;;5015307;28;20028;-67
2023/05/14 06:18:58;;;;;;;7.55;5.57;;;;;;;;;;5008244;28;20022;-66
2023/05/14 06:21:23;;;;;;;8.25;5.45;;;;;;;;;;4995390;28;20061;-69
2023/05/14 06:23:49;;;;;;;9.43;5.25;;;;;;;;;;4995455;28;20089;-64
2023/05/14 06:26:14;;;;;;;9.10;5.05;;;;;;;;;;4995598;28;20632;-64
2023/05/14 06:28:40;;;;;;;8.90;5.35;;;;;;;;;;4994514;28;20030;-67
2023/05/14 06:31:05;;;;;;;9.70;5.15;;;;;;;;;;4995427;28;20026;-68
2023/05/14 06:33:30;;;;;;;8.38;5.90;;;;;;;;;;4995277;28;20377;-67
2023/05/14 06:36:02;;;;;;;9.25;5.15;;;;;;;;;;4995138;28;20491;-65
2023/05/14 06:38:27;;;;;;;9.70;5.60;;;;;;;;;;4995150;28;20034;-69
2023/05/14 06:40:53;;;;;;;7.90;5.15;;;;;;;;;;4995169;28;20030;-68
2023/05/14 06:43:18;;;;;;;11.38;5.35;;;;;;;;;;4995161;28;20038;-67
2023/05/14 06:45:47;;;;;;;10.57;5.65;;;;;;;;;;5004607;28;20022;-68
2023/05/14 06:48:13;;;;;;;10.57;5.38;;;;;;;;;;5013180;28;20530;-67
2023/05/14 06:50:39;;;;;;;9.30;5.13;;;;;;;;;;5014403;28;20026;-69
2023/05/14 06:53:04;;;;;;;7.97;5.45;;;;;;;;;;5014477;28;20025;-69
2023/05/14 06:55:30;;;;;;;9.73;5.43;;;;;;;;;;5014416;28;20041;-69
2023/05/14 06:57:55;;;;;;;7.82;5.63;;;;;;;;;;5014375;28;20033;-69
2023/05/14 07:00:21;;;;;;;7.35;5.47;;;;;;;;;;5014315;28;20030;-69
2023/05/14 07:02:46;;;;;;;10.50;5.63;;;;;;;;;;5014135;28;20017;-69
2023/05/14 07:05:12;;;;;;;8.77;6.00;;;;;;;;;;5014311;28;20022;-68
2023/05/14 07:07:37;;;;;;;7.95;5.95;;;;;;;;;;5014165;28;20439;-67
2023/05/14 07:10:03;;;;;;;11.18;5.28;;;;;;;;;;5014156;28;20342;-69
2023/05/14 07:12:28;;;;;;;8.40;5.78;;;;;;;;;;5014246;28;20112;-69
2023/05/14 07:14:55;;;;;;;9.75;6.18;;;;;;;;;;5012958;28;20022;-68
2023/05/14 07:17:21;;;;;;;6.30;5.60;;;;;;;;;;5013864;28;20084;-69
2023/05/14 07:19:46;;;;;;;8.60;5.78;;;;;;;;;;5007749;28;20042;-69
2023/05/14 07:22:12;;;;;;;9.45;5.85;;;;;;;;;;4994227;28;20124;-68
2023/05/14 07:24:37;;;;;;;7.05;4.82;;;;;;;;;;4994297;28;20065;-68
2023/05/14 07:27:03;;;;;;;12.05;5.18;;;;;;;;;;4994273;28;20109;-68
2023/05/14 07:29:29;;;;;;;12.95;5.30;;;;;;;;;;4994304;28;20033;-69
2023/05/14 07:31:54;;;;;;;8.00;5.10;;;;;;;;;;4993923;28;20041;-69
2023/05/14 07:34:20;;;;;;;8.75;4.70;;;;;;;;;;4994130;28;20113;-68
2023/05/14 07:36:46;;;;;;;10.38;5.20;;;;;;;;;;4994161;28;20088;-68
2023/05/14 07:39:11;;;;;;;11.10;4.70;;;;;;;;;;4993635;28;20035;-68
2023/05/14 07:41:36;;;;;;;10.90;4.60;;;;;;;;;;4994213;28;20053;-68
2023/05/14 07:44:02;;;;;;;10.40;4.47;;;;;;;;;;4994014;28;20018;-67
2023/05/14 07:46:27;;;;;;;10.95;4.97;;;;;;;;;;5006491;28;20026;-69
2023/05/14 07:48:53;;;;;;;9.45;4.72;;;;;;;;;;5013628;28;20029;-69
2023/05/14 07:51:18;;;;;;;11.63;5.40;;;;;;;;;;5013427;28;20026;-70
2023/05/14 07:53:44;;;;;;;11.95;4.90;;;;;;;;;;5013207;28;20361;-66
2023/05/14 07:56:09;;;;;;;8.95;4.72;;;;;;;;;;4995453;28;20022;-69
2023/05/14 07:58:35;;;;;;;10.43;4.90;;;;;;;;;;4993824;28;20077;-69
2023/05/14 08:01:02;;;;;;;10.65;4.75;;;;;;;;;;4993480;28;20031;-68
2023/05/14 08:03:28;;;;;;;8.93;4.60;;;;;;;;;;4993647;28;20555;-68
2023/05/14 08:05:53;;;;;;;6.93;4.55;;;;;;;;;;4993607;28;20030;-68
2023/05/14 08:08:18;;;;;;;12.50;4.72;;;;;;;;;;4993698;28;20026;-69
2023/05/14 08:10:44;;;;;;;9.30;4.35;;;;;;;;;;4993688;28;20037;-70
2023/05/14 08:13:09;;;;;;;10.40;4.90;;;;;;;;;;4993675;28;20031;-69
2023/05/14 08:15:35;;;;;;;8.85;4.50;;;;;;;;;;4993340;28;20388;-68
2023/05/14 08:18:02;;;;;;;7.97;4.40;;;;;;;;;;4997628;28;20390;-69
2023/05/14 08:20:29;;;;;;;7.47;4.18;;;;;;;;;;5005382;28;20057;-71
2023/05/14 08:22:56;;;;;;;9.82;3.97;;;;;;;;;;5005895;28;20476;-68
2023/05/14 08:25:22;;;;;;;7.65;4.78;;;;;;;;;;4993621;28;20448;-71
2023/05/14 08:27:48;;;;;;;8.00;4.28;;;;;;;;;;4983898;28;20022;-70
2023/05/14 08:30:13;;;;;;;9.52;4.70;;;;;;;;;;4985294;28;20452;-69
2023/05/14 08:32:41;;;;;;;6.93;4.60;;;;;;;;;;4987501;28;20046;-70
2023/05/14 08:35:07;;;;;;;11.50;4.78;;;;;;;;;;4983880;28;20065;-68
2023/05/14 08:37:32;;;;;;;6.80;4.20;;;;;;;;;;4986099;28;20050;-65
2023/05/14 08:39:58;;;;;;;9.80;4.60;;;;;;;;;;4984958;28;20026;-64
2023/05/14 08:42:24;;;;;;;7.97;4.72;;;;;;;;;;4985841;28;20031;-68
2023/05/14 08:44:59;;;;;;;7.60;4.30;;;;;;;;;;4984500;28;20018;-70
2023/05/14 08:47:25;;;;;;;8.70;4.75;;;;;;;;;;4989610;28;20040;-69
2023/05/14 08:50:17;;;;;;;6.53;4.60;;;;;;;;;;4984030;28;20098;-69
2023/05/14 08:52:43;;;;;;;9.05;4.68;;;;;;;;;;4983583;28;20031;-66
2023/05/14 08:55:09;;;;;;;9.80;5.15;;;;;;;;;;4986525;28;20026;-67
2023/05/14 08:57:34;;;;;;;8.23;4.00;;;;;;;;;;4993426;28;20027;-69
2023/05/14 09:00:04;;;;;;;8.48;4.80;;;;;;;;;;4989738;28;20546;-71
2023/05/14 09:02:30;;;;;;;;;;;;;;;;;;4989121;28;20057;-67
2023/05/14 09:04:57;;;;;;;6.15;3.65;;;;;;;;;;4989265;28;20391;-65
2023/05/14 09:07:23;;;;;;;5.88;3.30;;;;;;;;;;4987736;28;20075;-64
2023/05/14 09:09:50;;;;;;;5.88;3.40;;;;;;;;;;4992722;28;20097;-63
2023/05/14 09:12:15;;;;;;;6.72;3.45;;;;;;;;;;4990076;28;20026;-64
2023/05/14 09:14:41;;;;;;;7.60;3.78;;;;;;;;;;4992230;28;20085;-64
2023/05/14 09:17:07;;;;;;;7.22;3.70;;;;;;;;;;4998530;28;20450;-64
2023/05/14 09:19:33;;;;;;;7.55;3.63;;;;;;;;;;5009365;28;20038;-63
2023/05/14 09:21:59;;;;;;;7.45;3.30;;;;;;;;;;4999106;28;20046;-67
2023/05/14 09:24:27;;;;;;;6.68;3.65;;;;;;;;;;4988793;28;20019;-68
2023/05/14 09:26:55;;;;;;;6.00;3.53;;;;;;;;;;4989469;28;20026;-68
2023/05/14 09:29:22;;;;;;;6.72;3.35;;;;;;;;;;4987417;28;20418;-67
2023/05/14 09:31:50;;;;;;;5.53;3.10;;;;;;;;;;4985977;28;20026;-67
2023/05/14 09:34:36;;;;;;;9.07;4.18;;;;;;;;;;4986571;28;20026;-65
2023/05/14 09:37:07;;;;;;;5.95;3.13;;;;;;;;;;4987404;28;20353;-67
2023/05/14 09:39:35;;;;;;;5.70;3.60;;;;;;;;;;4986856;28;20027;-68
2023/05/14 09:42:00;;;;;;;6.95;3.40;;;;;;;;;;4984996;28;20023;-71
2023/05/14 09:44:26;;;;;;;5.45;3.13;;;;;;;;;;4986075;28;20027;-68
2023/05/14 09:46:53;;;;;;;6.68;3.30;;;;;;;;;;5003041;28;20503;-69
2023/05/14 09:49:18;;;;;;;4.90;3.40;;;;;;;;;;5015758;28;20030;-65
2023/05/14 09:51:44;;;;;;;6.85;3.33;;;;;;;;;;5015654;28;20536;-66
2023/05/14 09:54:10;;;;;;;6.57;3.40;;;;;;;;;;5015563;28;20022;-71
2023/05/14 09:56:36;;;;;;;6.05;3.33;;;;;;;;;;5013945;28;20053;-66
2023/05/14 09:59:02;;;;;;;7.90;3.10;;;;;;;;;;5015286;28;20038;-69
2023/05/14 10:01:29;;;;;;;7.25;3.38;;;;;;;;;;5011675;28;20499;-69
2023/05/14 10:03:55;;;;;;;6.10;3.20;;;;;;;;;;4995699;28;20548;-70
2023/05/14 10:06:24;;;;;;;7.72;3.75;;;;;;;;;;4995512;28;20030;-67
2023/05/14 10:08:53;;;;;;;8.85;3.40;;;;;;;;;;4995856;28;20492;-68
2023/05/14 10:11:21;;;;;;;4.80;3.13;;;;;;;;;;4995699;28;20398;-69
2023/05/14 10:14:17;;;;;;;8.45;3.03;;;;;;;;;;4995691;28;20436;-68
2023/05/14 10:16:48;;;;;;;8.80;3.63;;;;;;;;;;4995534;28;20030;-65
2023/05/14 10:19:15;;;;;;;8.15;3.30;;;;;;;;;;4995268;28;20031;-70
2023/05/14 10:21:44;;;;;;;5.20;3.15;;;;;;;;;;4995049;28;20022;-67
2023/05/14 10:24:10;;;;;;;4.00;2.63;;;;;;;;;;4995489;28;20543;-64
2023/05/14 10:26:38;;;;;;;4.70;2.60;;;;;;;;;;4995085;28;20161;-65
2023/05/14 10:29:08;;;;;;;5.70;3.30;;;;;;;;;;4995296;28;20037;-63
2023/05/14 10:31:52;;;;;;;6.72;3.00;;;;;;;;;;4995422;28;20391;-63
2023/05/14 10:34:30;;;;;;;4.38;2.45;;;;;;;;;;4995085;28;20124;-67
2023/05/14 10:36:59;;;;;;;5.57;2.80;;;;;;;;;;4995162;28;20105;-67
2023/05/14 10:39:43;;;;;;;9.98;3.15;;;;;;;;;;4995001;28;20088;-69
2023/05/14 10:42:32;;;;;;;5.28;2.10;;;;;;;;;;4995268;28;20058;-69
2023/05/14 10:45:00;;;;;;;5.35;3.03;;;;;;;;;;4995046;28;20026;-67
2023/05/14 10:47:30;;;;;;;5.35;2.60;;;;;;;;;;4997969;28;20029;-69
2023/05/14 10:50:00;;;;;;;;;;;;;;;;;;5014940;28;20041;-67
2023/05/14 10:52:26;;;;;;;;;;;;;;;;;;5014752;28;20290;-69
2023/05/14 10:54:54;;;;;;;8.00;2.85;;;;;;;;;;5014128;28;19913;-68
2023/05/14 10:57:24;;;;;;;5.85;2.90;;;;;;;;;;5014268;28;20072;-64
2023/05/14 10:59:55;;;;;;;5.35;2.70;;;;;;;;;;5013762;28;20030;-70
2023/05/14 11:02:33;;;;;;;7.95;3.08;;;;;;;;;;5003389;28;20032;-71
2023/05/14 11:05:10;;;;;;;16.42;2.75;;;;;;;;;;4994620;28;20562;-68
2023/05/14 11:07:48;;;;;;;12.32;2.45;;;;;;;;;;4994377;28;20026;-70
2023/05/14 11:10:20;;;;;;;5.43;2.55;;;;;;;;;;4994331;28;20034;-70
2023/05/14 11:12:50;;;;;;;7.88;2.50;;;;;;;;;;4994561;28;20128;-66
2023/05/14 11:15:20;;;;;;;5.70;2.30;;;;;;;;;;4993933;28;20041;-68
2023/05/14 11:17:47;;;;;;;5.80;2.50;;;;;;;;;;4994519;28;20027;-71
2023/05/14 11:20:13;;;;;;;4.35;3.08;;;;;;;;;;4993991;28;20527;-68
2023/05/14 11:22:40;;;;;;;6.00;3.03;;;;;;;;;;4994154;28;20034;-65
2023/05/14 11:25:07;;;;;;;7.20;3.03;;;;;;;;;;4994042;28;20030;-68
2023/05/14 11:27:39;;;;;;;7.50;3.03;;;;;;;;;;4994125;28;20027;-71
2023/05/14 11:30:11;;;;;;;4.05;2.50;;;;;;;;;;4994205;28;20109;-67
2023/05/14 11:32:37;;;;;;;5.28;2.55;;;;;;;;;;4993893;28;20019;-69
2023/05/14 11:35:03;;;;;;;4.72;2.83;;;;;;;;;;4994103;28;20527;-70
2023/05/14 11:37:29;;;;;;;5.80;2.53;;;;;;;;;;4993694;28;20037;-66
2023/05/14 11:39:59;;;;;;;4.18;2.67;;;;;;;;;;4993754;28;20396;-64
2023/05/14 11:42:24;;;;;;;7.87;2.93;;;;;;;;;;4993867;28;20392;-65
2023/05/14 11:44:52;;;;;;;15.27;6.32;;;;;;;;;;4993869;28;20037;-68
2023/05/14 11:47:20;;;;;;;8.07;3.28;;;;;;;;;;4993768;28;20034;-65
2023/05/14 11:49:46;;;;;;;11.75;6.68;;;;;;;;;;5006119;28;20455;-68
2023/05/14 11:52:13;;;;;;;19.15;11.02;;;;;;;;;;5013171;28;20091;-67
2023/05/14 11:54:40;;;;;;;6.65;3.95;;;;;;;;;;5013149;28;20040;-65
2023/05/14 11:57:11;;;;;;;4.35;2.55;;;;;;;;;;5013276;28;20040;-66
2023/05/14 11:59:37;;;;;;;7.75;2.25;;;;;;;;;;5013123;28;20483;-69
2023/05/14 12:02:06;;;;;;;4.90;2.47;;;;;;;;;;5004896;28;20161;-67
2023/05/14 12:04:31;;;;;;;6.60;2.95;;;;;;;;;;4992172;28;20026;-64
2023/05/14 12:06:59;;;;;;;7.63;2.70;;;;;;;;;;4993403;28;20113;-65
2023/05/14 12:09:25;;;;;;;4.45;2.92;;;;;;;;;;4993481;28;20049;-65
2023/05/14 12:11:51;;;;;;;7.60;2.55;;;;;;;;;;4993375;28;20030;-66
2023/05/14 12:14:19;;;;;;;4.65;2.55;;;;;;;;;;4993411;28;20197;-69
2023/05/14 12:16:45;;;;;;;3.85;2.80;;;;;;;;;;4993523;28;20038;-65
2023/05/14 12:19:12;;;;;;;6.47;2.80;;;;;;;;;;4992969;28;20053;-67
2023/05/14 12:21:39;;;;;;;5.15;3.13;;;;;;;;;;4992821;28;20104;-67
2023/05/14 12:24:11;;;;;;;4.78;2.90;;;;;;;;;;4993276;28;20022;-66
2023/05/14 12:26:39;;;;;;;7.30;3.53;;;;;;;;;;4992371;28;20460;-63
2023/05/14 12:29:08;;;;;;;6.05;2.80;;;;;;;;;;4993244;28;20464;-66
2023/05/14 12:31:35;;;;;;;4.85;3.15;;;;;;;;;;4993221;28;20037;-63
2023/05/14 12:34:02;;;;;;;5.00;2.97;;;;;;;;;;4993137;28;20085;-63
2023/05/14 12:36:28;;;;;;;4.75;2.38;;;;;;;;;;4992532;28;20026;-67
2023/05/14 12:39:02;;;;;;;5.15;2.90;;;;;;;;;;4992099;28;20480;-66
2023/05/14 12:41:27;;;;;;;5.45;2.83;;;;;;;;;;4993300;28;20061;-66
2023/05/14 12:43:53;;;;;;;7.80;3.30;;;;;;;;;;4993055;28;20026;-64
2023/05/14 12:46:18;;;;;;;7.97;3.50;;;;;;;;;;4993110;28;20022;-64
2023/05/14 12:48:45;;;;;;;6.75;2.85;;;;;;;;;;4991861;28;20033;-65
2023/05/14 12:51:10;;;;;;;5.75;2.30;;;;;;;;;;5003607;28;20459;-64
2023/05/14 12:53:36;;;;;;;4.45;2.35;;;;;;;;;;5012788;28;20110;-64
2023/05/14 12:56:01;;;;;;;4.10;2.83;;;;;;;;;;5012535;28;20037;-64
2023/05/14 12:58:27;;;;;;;6.45;3.70;;;;;;;;;;5012560;28;20152;-63
2023/05/14 13:00:52;;;;;;;4.03;2.75;;;;;;;;;;5012610;28;20033;-63
2023/05/14 13:03:18;;;;;;;4.85;2.80;;;;;;;;;;4993906;28;20556;-64
2023/05/14 13:05:43;;;;;;;6.63;2.92;;;;;;;;;;4992739;28;20118;-63
2023/05/14 13:08:09;;;;;;;5.88;2.42;;;;;;;;;;4992893;28;20022;-63
2023/05/14 13:10:34;;;;;;;6.93;2.45;;;;;;;;;;4992786;28;20070;-63
2023/05/14 13:13:01;;;;;;;5.63;2.40;;;;;;;;;;4992901;28;20031;-63
2023/05/14 13:15:27;;;;;;;3.53;2.17;;;;;;;;;;4992675;28;20380;-69
2023/05/14 13:17:52;;;;;;;6.72;2.42;;;;;;;;;;4992857;28;20119;-63
2023/05/14 13:20:18;;;;;;;5.18;2.80;;;;;;;;;;4992109;28;20051;-64
2023/05/14 13:22:43;;;;;;;4.70;2.72;;;;;;;;;;4992656;28;20041;-65
2023/05/14 13:25:09;;;;;;;6.13;2.63;;;;;;;;;;4992497;28;20054;-65
2023/05/14 13:27:35;;;;;;;7.47;3.17;;;;;;;;;;4992670;28;20034;-63
2023/05/14 13:30:02;;;;;;;5.10;2.63;;;;;;;;;;4992504;28;20081;-64
2023/05/14 13:32:28;;;;;;;5.03;2.50;;;;;;;;;;4992393;28;20054;-65
2023/05/14 13:34:53;;;;;;;7.45;3.03;;;;;;;;;;4992203;28;20058;-65
2023/05/14 13:37:19;;;;;;;5.25;2.65;;;;;;;;;;4992979;28;20520;-65
2023/05/14 13:39:44;;;;;;;8.75;5.03;;;;;;;;;;4994642;28;20026;-67
2023/05/14 13:42:10;;;;;;;4.63;2.50;;;;;;;;;;4996210;28;20383;-63
2023/05/14 13:44:35;;;;;;;5.78;2.80;;;;;;;;;;4995800;28;20029;-64
2023/05/14 13:47:01;;;;;;;5.03;2.90;;;;;;;;;;4996088;28;20109;-67
2023/05/14 13:49:26;;;;;;;4.45;2.67;;;;;;;;;;4995846;28;20041;-64
2023/05/14 13:51:51;;;;;;;8.65;2.88;;;;;;;;;;5012516;28;20026;-68
2023/05/14 13:54:17;;;;;;;6.53;2.72;;;;;;;;;;5015365;28;20041;-69
2023/05/14 13:56:42;;;;;;;4.65;2.88;;;;;;;;;;5016037;28;20104;-68
2023/05/14 13:59:08;;;;;;;6.68;2.88;;;;;;;;;;5015492;28;20057;-67
2023/05/14 14:01:33;;;;;;;8.43;3.10;;;;;;;;;;5010880;28;20026;-65
2023/05/14 14:03:59;;;;;;;7.25;2.95;;;;;;;;;;4995535;28;20495;-64
2023/05/14 14:06:26;;;;;;;7.60;3.13;;;;;;;;;;4995853;28;20031;-63
2023/05/14 14:08:51;;;;;;;8.25;2.85;;;;;;;;;;4995598;28;20022;-63
2023/05/14 14:11:17;;;;;;;6.15;2.90;;;;;;;;;;4989795;28;20122;-64
2023/05/14 14:13:42;;;;;;;6.43;3.10;;;;;;;;;;5011115;28;20064;-64
2023/05/14 14:16:09;;;;;;;6.25;2.70;;;;;;;;;;5003509;28;20026;-64
2023/05/14 14:18:34;;;;;;;4.07;2.60;;;;;;;;;;4995198;28;20039;-64
2023/05/14 14:21:00;;;;;;;4.53;2.67;;;;;;;;;;4995066;28;20555;-64
2023/05/14 14:23:26;;;;;;;3.47;2.53;;;;;;;;;;4995173;28;20081;-66
2023/05/14 14:25:51;;;;;;;5.95;2.90;;;;;;;;;;4995197;28;20026;-65
2023/05/14 14:28:17;;;;;;;5.82;3.50;;;;;;;;;;4995224;28;20030;-65
2023/05/14 14:30:43;;;;;;;10.43;4.03;;;;;;;;;;4995113;28;20061;-68
2023/05/14 14:33:08;;;;;;;5.50;3.00;;;;;;;;;;4994844;28;20026;-68
2023/05/14 14:35:35;;;;;;;6.88;3.08;;;;;;;;;;4994887;28;20480;-67
2023/05/14 14:38:00;;;;;;;7.40;3.05;;;;;;;;;;4995052;28;20066;-68